createdAt,value
2023-02-19T00:00:11.213Z,29.59
2023-02-19T00:01:11.379Z,30.56
2023-02-19T00:02:11.145Z,29.72
2023-02-19T00:03:11.142Z,29.62
2023-02-19T00:55:31.390Z,25.00
2023-02-19T00:56:32.258Z,25.00
2023-02-19T00:57:32.259Z,25.00
2023-02-19T00:58:32.186Z,25.00
2023-02-19T00:59:32.158Z,25.00
2023-02-19T01:00:32.139Z,25.00
2023-02-19T01:01:32.146Z,0.00
2023-02-19T01:02:32.124Z,0.00
2023-02-19T01:03:32.067Z,0.00
2023-02-19T01:04:32.058Z,0.00
2023-02-19T01:05:32.001Z,0.00
2023-02-19T01:06:31.971Z,0.00
2023-02-19T01:07:31.976Z,6.29
2023-02-19T01:08:31.927Z,24.98
2023-02-19T01:09:31.940Z,25.00
2023-02-19T01:10:31.877Z,25.00
2023-02-19T01:11:31.871Z,25.31
2023-02-19T01:12:31.818Z,25.78
2023-02-19T01:13:31.787Z,25.18
2023-02-19T01:14:31.837Z,25.25
2023-02-19T01:15:31.755Z,25.00
2023-02-19T01:16:31.713Z,25.91
2023-02-19T01:17:31.684Z,25.00
2023-02-19T01:18:31.659Z,26.49
2023-02-19T01:19:31.689Z,25.82
2023-02-19T01:20:31.607Z,25.00
2023-02-19T01:21:31.589Z,26.87
2023-02-19T01:22:31.565Z,25.84
2023-02-19T01:23:31.561Z,25.88
2023-02-19T01:24:31.524Z,25.86
2023-02-19T01:25:31.504Z,26.70
2023-02-19T01:26:31.473Z,26.06
2023-02-19T01:27:31.489Z,26.63
2023-02-19T01:28:31.433Z,25.00
2023-02-19T01:29:31.420Z,25.00
2023-02-19T01:30:31.451Z,26.87
2023-02-19T01:31:31.571Z,25.00
2023-02-19T01:32:31.365Z,26.56
2023-02-19T01:33:31.335Z,25.44
2023-02-19T01:34:31.301Z,26.40
2023-02-19T01:35:31.258Z,26.14
2023-02-19T01:36:31.242Z,27.21
2023-02-19T01:37:31.191Z,25.00
2023-02-19T01:38:31.169Z,26.79
2023-02-19T01:39:31.138Z,27.11
2023-02-19T01:40:31.116Z,26.17
2023-02-19T01:41:31.085Z,26.34
2023-02-19T01:42:31.064Z,26.54
2023-02-19T01:43:31.904Z,26.37
2023-02-19T01:44:31.031Z,27.77
2023-02-19T01:45:30.988Z,26.13
2023-02-19T01:46:31.034Z,28.45
2023-02-19T01:47:30.929Z,26.87
2023-02-19T01:48:30.896Z,25.00
2023-02-19T01:49:30.854Z,25.76
2023-02-19T01:50:30.833Z,25.00
2023-02-19T01:51:30.808Z,27.09
2023-02-19T01:52:30.801Z,27.48
2023-02-19T01:53:30.783Z,27.11
2023-02-19T01:54:30.753Z,26.25
2023-02-19T01:55:30.728Z,26.28
2023-02-19T01:56:30.700Z,26.20
2023-02-19T01:57:30.673Z,26.22
2023-02-19T01:58:30.662Z,27.00
2023-02-19T01:59:30.683Z,27.52
2023-02-19T02:00:30.705Z,26.01
2023-02-19T02:01:30.599Z,26.69
2023-02-19T02:02:30.564Z,26.09
2023-02-19T02:03:30.537Z,28.84
2023-02-19T02:04:30.503Z,26.50
2023-02-19T02:05:30.507Z,27.60
2023-02-19T02:06:30.454Z,27.55
2023-02-19T02:07:30.432Z,26.02
2023-02-19T02:08:30.413Z,27.98
2023-02-19T02:09:30.402Z,27.60
2023-02-19T02:10:30.369Z,27.07
2023-02-19T02:11:30.348Z,27.23
2023-02-19T02:12:30.328Z,26.97
2023-02-19T02:13:30.309Z,26.56
2023-02-19T02:14:30.290Z,27.18
2023-02-19T02:15:30.284Z,28.11
2023-02-19T02:16:30.339Z,28.11
2023-02-19T02:17:30.218Z,27.31
2023-02-19T02:18:30.228Z,30.07
2023-02-19T02:19:30.167Z,26.38
2023-02-19T02:20:30.151Z,26.58
2023-02-19T02:21:30.135Z,25.67
2023-02-19T02:22:30.900Z,26.09
2023-02-19T02:23:30.146Z,27.11
2023-02-19T02:24:30.065Z,27.08
2023-02-19T02:25:30.041Z,26.19
2023-02-19T02:26:30.003Z,26.87
2023-02-19T02:27:29.981Z,26.89
2023-02-19T02:28:29.960Z,25.88
2023-02-19T02:29:29.935Z,27.35
2023-02-19T02:30:29.997Z,27.49
2023-02-19T02:31:29.995Z,27.36
2023-02-19T02:32:29.851Z,26.91
2023-02-19T02:33:29.822Z,27.26
2023-02-19T02:34:29.801Z,27.33
2023-02-19T02:35:29.802Z,28.52
2023-02-19T02:36:29.745Z,27.03
2023-02-19T02:37:29.728Z,25.82
2023-02-19T02:38:29.700Z,26.65
2023-02-19T02:39:29.685Z,27.68
2023-02-19T02:40:29.657Z,27.36
2023-02-19T02:41:29.639Z,28.01
2023-02-19T02:42:29.631Z,29.23
2023-02-19T02:43:29.593Z,28.24
2023-02-19T02:44:29.571Z,26.72
2023-02-19T02:45:29.618Z,29.20
2023-02-19T02:46:29.509Z,27.32
2023-02-19T02:47:29.481Z,26.73
2023-02-19T02:48:29.446Z,28.29
2023-02-19T02:49:29.418Z,28.17
2023-02-19T02:50:29.389Z,27.03
2023-02-19T02:51:29.378Z,27.33
2023-02-19T02:52:29.336Z,27.72
2023-02-19T02:53:29.320Z,27.94
2023-02-19T02:54:29.297Z,28.05
2023-02-19T02:55:29.302Z,27.80
2023-02-19T02:56:29.235Z,25.51
2023-02-19T02:57:29.211Z,27.96
2023-02-19T02:58:29.190Z,28.87
2023-02-19T02:59:29.174Z,27.55
2023-02-19T03:00:29.132Z,26.51
2023-02-19T03:01:29.146Z,26.97
2023-02-19T03:02:29.144Z,28.09
2023-02-19T03:03:29.037Z,28.99
2023-02-19T03:04:29.010Z,26.28
2023-02-19T03:05:28.965Z,25.69
2023-02-19T03:06:28.923Z,29.83
2023-02-19T03:07:28.896Z,27.95
2023-02-19T03:08:28.858Z,28.56
2023-02-19T03:09:28.833Z,30.46
2023-02-19T03:10:28.799Z,29.49
2023-02-19T03:11:28.770Z,31.35
2023-02-19T03:12:28.737Z,28.42
2023-02-19T03:13:28.699Z,28.11
2023-02-19T03:14:28.665Z,29.38
2023-02-19T03:15:28.652Z,29.32
2023-02-19T03:16:28.698Z,28.45
2023-02-19T03:17:28.580Z,28.68
2023-02-19T03:18:28.550Z,28.05
2023-02-19T03:19:28.527Z,30.36
2023-02-19T03:20:28.489Z,29.37
2023-02-19T03:21:28.460Z,30.39
2023-02-19T03:22:28.417Z,27.88
2023-02-19T03:23:28.393Z,30.22
2023-02-19T03:24:28.379Z,28.55
2023-02-19T03:25:28.339Z,28.53
2023-02-19T03:26:28.336Z,26.92
2023-02-19T03:27:28.268Z,28.47
2023-02-19T03:28:28.246Z,29.25
2023-02-19T03:29:28.220Z,28.72
2023-02-19T03:30:28.229Z,28.80
2023-02-19T03:31:28.294Z,29.53
2023-02-19T03:32:28.141Z,29.39
2023-02-19T03:33:28.105Z,27.11
2023-02-19T03:34:28.088Z,29.86
2023-02-19T03:35:28.050Z,29.04
2023-02-19T03:36:28.008Z,27.71
2023-02-19T03:37:27.975Z,28.37
2023-02-19T03:38:27.949Z,29.76
2023-02-19T03:39:27.919Z,29.16
2023-02-19T03:40:27.914Z,29.12
2023-02-19T03:41:27.849Z,28.25
2023-02-19T03:42:27.814Z,28.31
2023-02-19T03:43:27.792Z,29.45
2023-02-19T03:44:27.779Z,30.76
2023-02-19T03:45:27.747Z,28.34
2023-02-19T03:46:27.722Z,28.75
2023-02-19T03:47:27.687Z,29.58
2023-02-19T03:48:27.664Z,29.24
2023-02-19T03:49:27.613Z,30.14
2023-02-19T03:50:27.629Z,28.00
2023-02-19T03:51:27.588Z,27.36
2023-02-19T03:52:27.530Z,26.97
2023-02-19T03:53:27.512Z,27.32
2023-02-19T03:54:27.482Z,27.33
2023-02-19T03:55:27.452Z,26.66
2023-02-19T03:56:27.432Z,27.44
2023-02-19T03:57:27.406Z,28.46
2023-02-19T03:58:27.386Z,28.63
2023-02-19T03:59:27.366Z,28.01
2023-02-19T04:00:27.330Z,28.36
2023-02-19T04:01:27.296Z,29.38
2023-02-19T04:02:27.311Z,28.11
2023-02-19T04:03:27.252Z,29.62
2023-02-19T04:04:27.320Z,26.25
2023-02-19T04:05:27.232Z,30.11
2023-02-19T04:06:27.198Z,28.52
2023-02-19T04:07:27.187Z,28.02
2023-02-19T04:08:27.152Z,29.46
2023-02-19T04:09:27.125Z,28.36
2023-02-19T04:10:27.113Z,28.59
2023-02-19T04:11:27.087Z,30.21
2023-02-19T04:12:27.060Z,29.06
2023-02-19T04:13:27.043Z,27.64
2023-02-19T04:14:27.030Z,29.33
2023-02-19T04:15:27.015Z,29.35
2023-02-19T04:16:27.024Z,30.00
2023-02-19T04:17:26.975Z,28.96
2023-02-19T04:18:26.960Z,28.56
2023-02-19T04:19:26.944Z,26.99
2023-02-19T04:20:26.913Z,28.15
2023-02-19T04:21:26.906Z,28.24
2023-02-19T04:22:26.877Z,27.02
2023-02-19T04:23:26.862Z,27.88
2023-02-19T04:24:26.838Z,28.28
2023-02-19T04:25:26.820Z,29.45
2023-02-19T04:26:26.803Z,28.79
2023-02-19T04:27:26.803Z,29.78
2023-02-19T04:28:26.763Z,27.49
2023-02-19T04:29:26.746Z,27.00
2023-02-19T04:30:26.802Z,28.35
2023-02-19T04:31:26.821Z,28.76
2023-02-19T04:32:26.676Z,28.62
2023-02-19T04:33:26.656Z,28.44
2023-02-19T04:34:26.630Z,29.20
2023-02-19T04:35:26.617Z,29.65
2023-02-19T04:36:26.600Z,28.24
2023-02-19T04:37:26.580Z,28.23
2023-02-19T04:38:26.557Z,29.93
2023-02-19T04:39:26.520Z,29.84
2023-02-19T04:40:26.495Z,27.09
2023-02-19T04:41:26.506Z,28.85
2023-02-19T04:42:26.451Z,27.90
2023-02-19T04:43:26.433Z,29.77
2023-02-19T04:44:26.411Z,29.53
2023-02-19T04:45:26.376Z,30.34
2023-02-19T04:46:26.420Z,26.86
2023-02-19T04:47:26.309Z,27.25
2023-02-19T04:48:26.283Z,28.44
2023-02-19T04:49:26.268Z,29.94
2023-02-19T04:50:26.237Z,29.13
2023-02-19T04:51:26.244Z,28.08
2023-02-19T04:52:26.180Z,29.16
2023-02-19T04:53:26.156Z,30.25
2023-02-19T04:54:26.148Z,26.54
2023-02-19T04:55:26.115Z,30.58
2023-02-19T04:56:26.081Z,27.28
2023-02-19T04:57:26.056Z,28.31
2023-02-19T04:58:26.042Z,27.99
2023-02-19T04:59:26.016Z,28.58
2023-02-19T05:00:25.988Z,26.92
2023-02-19T05:01:25.974Z,27.58
2023-02-19T05:02:25.928Z,29.91
2023-02-19T05:03:25.902Z,30.13
2023-02-19T05:04:25.924Z,28.27
2023-02-19T05:05:25.845Z,27.59
2023-02-19T05:06:25.821Z,26.97
2023-02-19T05:07:25.793Z,29.68
2023-02-19T05:08:25.760Z,26.73
2023-02-19T05:09:25.727Z,29.91
2023-02-19T05:10:25.693Z,28.26
2023-02-19T05:11:25.666Z,28.34
2023-02-19T05:12:25.647Z,26.98
2023-02-19T05:13:25.735Z,28.78
2023-02-19T05:14:25.581Z,27.32
2023-02-19T05:15:25.550Z,27.17
2023-02-19T05:16:25.540Z,30.01
2023-02-19T05:17:25.493Z,30.18
2023-02-19T05:18:25.465Z,28.79
2023-02-19T05:19:25.452Z,29.73
2023-02-19T05:20:25.414Z,26.44
2023-02-19T05:21:25.394Z,27.00
2023-02-19T05:22:25.372Z,30.03
2023-02-19T05:23:25.336Z,29.42
2023-02-19T05:24:25.305Z,28.93
2023-02-19T05:25:25.285Z,28.74
2023-02-19T05:26:25.266Z,27.33
2023-02-19T05:27:25.241Z,29.69
2023-02-19T05:28:25.213Z,27.65
2023-02-19T05:29:25.175Z,28.03
2023-02-19T05:30:25.245Z,28.50
2023-02-19T05:31:25.239Z,29.02
2023-02-19T05:32:25.091Z,28.71
2023-02-19T05:33:25.057Z,27.81
2023-02-19T05:34:25.014Z,28.59
2023-02-19T05:35:24.982Z,28.08
2023-02-19T05:36:24.969Z,29.80
2023-02-19T05:37:24.924Z,27.12
2023-02-19T05:38:24.903Z,30.33
2023-02-19T05:39:24.859Z,27.45
2023-02-19T05:40:24.822Z,27.17
2023-02-19T05:41:24.803Z,28.24
2023-02-19T05:42:24.776Z,28.10
2023-02-19T05:43:24.751Z,29.27
2023-02-19T05:44:24.730Z,27.80
2023-02-19T05:45:24.700Z,27.64
2023-02-19T05:46:24.739Z,29.84
2023-02-19T05:47:24.635Z,26.82
2023-02-19T05:48:24.612Z,29.25
2023-02-19T05:49:24.579Z,28.79
2023-02-19T05:50:24.553Z,28.25
2023-02-19T05:51:24.516Z,30.70
2023-02-19T05:52:24.491Z,26.31
2023-02-19T05:53:24.467Z,28.91
2023-02-19T05:54:24.439Z,30.33
2023-02-19T05:55:24.414Z,29.42
2023-02-19T05:56:24.378Z,29.94
2023-02-19T05:57:24.339Z,29.29
2023-02-19T05:58:24.319Z,29.00
2023-02-19T05:59:24.298Z,28.71
2023-02-19T06:00:24.273Z,25.97
2023-02-19T06:01:24.237Z,26.96
2023-02-19T06:02:24.327Z,25.89
2023-02-19T06:03:24.262Z,30.19
2023-02-19T06:04:24.163Z,29.25
2023-02-19T06:05:24.131Z,28.11
2023-02-19T06:06:24.100Z,28.19
2023-02-19T06:07:24.067Z,26.97
2023-02-19T06:08:24.030Z,29.02
2023-02-19T06:09:24.005Z,28.30
2023-02-19T06:10:23.985Z,28.51
2023-02-19T06:11:23.965Z,29.93
2023-02-19T06:12:23.931Z,29.51
2023-02-19T06:13:23.904Z,30.13
2023-02-19T06:14:23.877Z,29.89
2023-02-19T06:15:23.852Z,28.73
2023-02-19T06:16:23.961Z,30.25
2023-02-19T06:17:23.809Z,30.01
2023-02-19T06:18:23.778Z,31.05
2023-02-19T06:19:23.765Z,29.36
2023-02-19T06:20:25.454Z,28.79
2023-02-19T06:21:23.694Z,33.27
2023-02-19T06:22:23.673Z,31.56
2023-02-19T06:23:23.627Z,30.44
2023-02-19T06:24:23.598Z,28.95
2023-02-19T06:25:23.569Z,29.84
2023-02-19T06:26:23.550Z,29.41
2023-02-19T06:27:23.506Z,30.43
2023-02-19T06:28:23.488Z,30.11
2023-02-19T06:29:23.460Z,30.20
2023-02-19T06:30:23.478Z,29.80
2023-02-19T06:31:23.507Z,28.88
2023-02-19T06:32:23.565Z,30.04
2023-02-19T06:33:23.364Z,30.28
2023-02-19T06:34:23.331Z,30.31
2023-02-19T06:35:23.299Z,30.20
2023-02-19T06:36:23.271Z,28.14
2023-02-19T06:37:23.241Z,30.27
2023-02-19T06:38:23.205Z,30.99
2023-02-19T06:39:23.174Z,32.16
2023-02-19T06:40:23.140Z,31.59
2023-02-19T06:41:23.134Z,31.31
2023-02-19T06:42:23.092Z,31.67
2023-02-19T06:43:23.073Z,30.76
2023-02-19T06:44:23.045Z,30.74
2023-02-19T06:45:23.013Z,31.04
2023-02-19T06:46:22.992Z,32.87
2023-02-19T06:47:25.386Z,31.98
2023-02-19T06:48:22.934Z,32.16
2023-02-19T06:49:22.911Z,32.35
2023-02-19T06:50:22.883Z,32.94
2023-02-19T06:51:22.839Z,30.20
2023-02-19T06:52:22.804Z,29.67
2023-02-19T06:53:22.803Z,31.30
2023-02-19T06:54:22.747Z,29.86
2023-02-19T06:55:22.733Z,31.29
2023-02-19T06:56:22.708Z,30.97
2023-02-19T06:57:22.697Z,29.70
2023-02-19T06:58:22.677Z,29.86
2023-02-19T06:59:22.657Z,30.89
2023-02-19T07:00:22.638Z,31.78
2023-02-19T07:01:22.635Z,31.42
2023-02-19T07:02:22.608Z,31.85
2023-02-19T07:03:22.585Z,30.98
2023-02-19T07:04:22.637Z,31.32
2023-02-19T07:05:22.575Z,30.60
2023-02-19T07:06:22.541Z,32.25
2023-02-19T07:07:22.490Z,33.12
2023-02-19T07:08:22.467Z,31.78
2023-02-19T07:09:22.443Z,32.02
2023-02-19T07:10:22.422Z,33.25
2023-02-19T07:11:22.402Z,31.85
2023-02-19T07:12:22.389Z,31.37
2023-02-19T07:13:22.366Z,31.68
2023-02-19T07:14:22.361Z,31.79
2023-02-19T07:15:22.318Z,32.57
2023-02-19T07:16:22.302Z,31.73
2023-02-19T07:17:22.295Z,30.91
2023-02-19T07:18:22.260Z,33.15
2023-02-19T07:19:22.232Z,30.27
2023-02-19T07:20:22.211Z,31.34
2023-02-19T07:21:22.188Z,31.67
2023-02-19T07:22:22.174Z,31.10
2023-02-19T07:23:22.153Z,34.08
2023-02-19T07:24:22.141Z,31.29
2023-02-19T07:25:22.123Z,32.97
2023-02-19T07:26:22.119Z,32.51
2023-02-19T07:27:22.076Z,34.14
2023-02-19T07:28:22.067Z,33.95
2023-02-19T07:29:22.112Z,31.30
2023-02-19T07:30:22.129Z,34.20
2023-02-19T07:31:22.157Z,31.99
2023-02-19T07:32:22.011Z,35.18
2023-02-19T07:33:21.989Z,33.76
2023-02-19T07:34:21.946Z,34.06
2023-02-19T07:35:21.924Z,33.02
2023-02-19T07:36:21.901Z,32.99
2023-02-19T07:37:21.900Z,33.91
2023-02-19T07:38:21.908Z,32.26
2023-02-19T07:39:21.868Z,33.50
2023-02-19T07:40:21.861Z,32.85
2023-02-19T07:41:21.844Z,33.99
2023-02-19T07:42:21.812Z,34.80
2023-02-19T07:43:21.803Z,33.09
2023-02-19T07:44:21.769Z,31.30
2023-02-19T07:45:21.756Z,34.43
2023-02-19T07:46:21.725Z,34.24
2023-02-19T07:47:21.708Z,32.73
2023-02-19T07:48:21.696Z,33.06
2023-02-19T07:49:21.674Z,32.48
2023-02-19T07:50:21.651Z,33.35
2023-02-19T07:51:21.638Z,31.83
2023-02-19T07:52:21.597Z,31.95
2023-02-19T07:53:21.570Z,33.15
2023-02-19T07:54:21.553Z,32.26
2023-02-19T07:55:21.531Z,33.70
2023-02-19T07:56:21.545Z,33.31
2023-02-19T07:57:21.492Z,34.59
2023-02-19T07:58:21.465Z,33.19
2023-02-19T07:59:21.448Z,32.90
2023-02-19T08:00:21.425Z,32.29
2023-02-19T08:01:21.412Z,33.82
2023-02-19T08:02:21.370Z,34.71
2023-02-19T08:03:21.424Z,34.27
2023-02-19T08:04:21.328Z,32.51
2023-02-19T08:05:21.288Z,34.64
2023-02-19T08:06:21.290Z,35.72
2023-02-19T08:07:21.249Z,35.02
2023-02-19T08:08:21.223Z,33.72
2023-02-19T08:09:21.204Z,32.99
2023-02-19T08:10:21.176Z,32.75
2023-02-19T08:11:21.219Z,33.51
2023-02-19T08:12:21.147Z,33.05
2023-02-19T08:13:21.118Z,34.13
2023-02-19T08:14:21.094Z,33.78
2023-02-19T08:15:22.480Z,32.29
2023-02-19T08:16:32.993Z,38.78
2023-02-19T08:17:21.131Z,38.95
2023-02-19T08:18:21.009Z,39.08
2023-02-19T08:19:20.988Z,38.95
2023-02-19T08:20:20.959Z,37.08
2023-02-19T08:21:21.127Z,37.18
2023-02-19T08:22:21.024Z,35.87
2023-02-19T08:23:20.906Z,35.18
2023-02-19T08:24:20.891Z,35.76
2023-02-19T08:25:20.861Z,34.48
2023-02-19T08:26:20.828Z,34.60
2023-02-19T08:27:20.878Z,35.10
2023-02-19T08:28:20.776Z,35.74
2023-02-19T08:29:20.757Z,36.28
2023-02-19T08:30:20.746Z,36.12
2023-02-19T08:31:21.015Z,34.85
2023-02-19T08:32:20.686Z,35.87
2023-02-19T08:33:20.682Z,35.79
2023-02-19T08:34:20.638Z,35.26
2023-02-19T08:35:20.612Z,35.95
2023-02-19T08:36:20.570Z,35.65
2023-02-19T08:37:20.580Z,34.07
2023-02-19T08:38:20.520Z,35.72
2023-02-19T08:39:21.238Z,35.54
2023-02-19T08:40:20.471Z,36.09
2023-02-19T08:41:20.433Z,35.34
2023-02-19T08:42:20.403Z,36.96
2023-02-19T08:43:20.378Z,35.55
2023-02-19T08:44:20.347Z,36.77
2023-02-19T08:45:20.340Z,37.19
2023-02-19T08:46:20.350Z,35.98
2023-02-19T08:47:20.277Z,36.57
2023-02-19T08:48:20.260Z,37.44
2023-02-19T08:49:20.238Z,37.08
2023-02-19T08:50:20.210Z,36.09
2023-02-19T08:51:20.193Z,34.20
2023-02-19T08:52:20.170Z,36.30
2023-02-19T08:53:20.180Z,35.65
2023-02-19T08:54:20.129Z,35.86
2023-02-19T08:55:20.116Z,35.43
2023-02-19T08:56:20.100Z,33.92
2023-02-19T08:57:20.065Z,35.07
2023-02-19T08:58:20.039Z,35.91
2023-02-19T08:59:20.020Z,35.85
2023-02-19T09:00:20.001Z,35.75
2023-02-19T09:01:20.088Z,36.32
2023-02-19T09:02:19.978Z,35.32
2023-02-19T09:03:19.955Z,35.68
2023-02-19T09:04:20.050Z,35.73
2023-02-19T09:05:19.922Z,35.26
2023-02-19T09:06:19.910Z,34.76
2023-02-19T09:07:19.888Z,36.35
2023-02-19T09:08:19.884Z,36.07
2023-02-19T09:09:19.869Z,34.59
2023-02-19T09:10:20.526Z,35.66
2023-02-19T09:11:19.840Z,36.37
2023-02-19T09:12:19.824Z,36.10
2023-02-19T09:13:19.811Z,35.81
2023-02-19T09:14:19.788Z,36.98
2023-02-19T09:15:19.776Z,36.31
2023-02-19T09:16:19.763Z,38.78
2023-02-19T09:17:19.751Z,35.83
2023-02-19T09:18:19.751Z,37.43
2023-02-19T09:19:19.723Z,37.75
2023-02-19T09:20:19.699Z,37.45
2023-02-19T09:21:19.677Z,37.44
2023-02-19T09:22:19.667Z,36.95
2023-02-19T09:23:19.674Z,36.45
2023-02-19T09:24:19.640Z,35.60
2023-02-19T09:25:19.620Z,36.69
2023-02-19T09:26:19.605Z,36.49
2023-02-19T09:27:19.578Z,37.45
2023-02-19T09:28:19.552Z,38.08
2023-02-19T09:29:19.548Z,35.89
2023-02-19T09:30:19.577Z,37.43
2023-02-19T09:31:19.624Z,36.72
2023-02-19T09:32:19.525Z,37.64
2023-02-19T09:33:19.443Z,38.83
2023-02-19T09:34:19.427Z,38.01
2023-02-19T09:35:19.413Z,38.71
2023-02-19T09:36:19.404Z,36.73
2023-02-19T09:37:19.384Z,36.86
2023-02-19T09:38:19.366Z,35.56
2023-02-19T09:39:19.388Z,38.66
2023-02-19T09:40:19.336Z,38.24
2023-02-19T09:41:19.323Z,38.99
2023-02-19T09:42:19.292Z,38.42
2023-02-19T09:43:19.245Z,40.12
2023-02-19T09:44:19.257Z,38.66
2023-02-19T09:45:19.222Z,37.73
2023-02-19T09:46:19.230Z,38.84
2023-02-19T09:47:19.244Z,37.44
2023-02-19T09:48:19.157Z,37.25
2023-02-19T09:49:19.127Z,37.91
2023-02-19T09:50:19.112Z,40.56
2023-02-19T09:51:19.102Z,37.98
2023-02-19T09:52:19.074Z,38.20
2023-02-19T09:53:19.038Z,37.78
2023-02-19T09:54:19.011Z,38.55
2023-02-19T09:55:19.046Z,37.68
2023-02-19T09:56:18.971Z,38.37
2023-02-19T09:57:18.963Z,39.81
2023-02-19T09:58:18.941Z,38.11
2023-02-19T09:59:18.903Z,38.23
2023-02-19T10:00:18.878Z,38.61
2023-02-19T10:01:18.916Z,37.98
2023-02-19T10:02:18.828Z,39.72
2023-02-19T10:03:18.795Z,38.79
2023-02-19T10:04:18.783Z,38.60
2023-02-19T10:05:18.861Z,39.14
2023-02-19T10:06:18.761Z,38.27
2023-02-19T10:07:18.728Z,38.64
2023-02-19T10:08:18.751Z,38.14
2023-02-19T10:09:18.702Z,39.34
2023-02-19T10:10:18.661Z,38.41
2023-02-19T10:11:18.646Z,39.55
2023-02-19T10:12:18.631Z,39.52
2023-02-19T10:13:18.619Z,39.25
2023-02-19T10:14:18.600Z,40.02
2023-02-19T10:15:18.587Z,40.01
2023-02-19T10:16:18.581Z,42.58
2023-02-19T10:17:18.561Z,39.33
2023-02-19T10:18:18.537Z,39.02
2023-02-19T10:19:18.531Z,40.32
2023-02-19T10:20:18.527Z,41.08
2023-02-19T10:21:18.521Z,39.80
2023-02-19T10:22:18.478Z,39.96
2023-02-19T10:23:18.456Z,41.17
2023-02-19T10:24:18.436Z,40.49
2023-02-19T10:25:18.424Z,39.73
2023-02-19T10:26:18.411Z,40.46
2023-02-19T10:27:18.394Z,41.65
2023-02-19T10:28:18.372Z,39.13
2023-02-19T10:29:18.348Z,39.92
2023-02-19T10:30:18.424Z,40.95
2023-02-19T10:31:20.545Z,41.75
2023-02-19T10:32:18.333Z,41.92
2023-02-19T10:33:18.273Z,42.11
2023-02-19T10:34:18.265Z,42.01
2023-02-19T10:35:18.255Z,42.15
2023-02-19T10:36:18.293Z,42.62
2023-02-19T10:37:18.256Z,43.25
2023-02-19T10:38:18.222Z,43.13
2023-02-19T10:39:18.203Z,41.74
2023-02-19T10:40:18.276Z,42.59
2023-02-19T10:41:18.230Z,42.09
2023-02-19T10:42:18.157Z,40.94
2023-02-19T10:43:18.144Z,42.23
2023-02-19T10:44:18.137Z,40.57
2023-02-19T10:45:18.112Z,41.98
2023-02-19T10:46:18.144Z,42.24
2023-02-19T10:47:18.081Z,40.87
2023-02-19T10:48:18.068Z,40.41
2023-02-19T10:49:18.047Z,40.60
2023-02-19T10:50:18.050Z,41.32
2023-02-19T10:51:17.991Z,42.26
2023-02-19T10:52:18.047Z,41.39
2023-02-19T10:53:17.956Z,41.19
2023-02-19T10:54:17.924Z,40.26
2023-02-19T10:55:17.899Z,42.46
2023-02-19T10:56:17.870Z,42.49
2023-02-19T10:57:17.837Z,43.20
2023-02-19T10:58:17.820Z,41.42
2023-02-19T10:59:17.796Z,41.62
2023-02-19T11:00:17.798Z,42.07
2023-02-19T11:01:17.752Z,40.89
2023-02-19T11:02:17.722Z,40.81
2023-02-19T11:03:17.710Z,40.82
2023-02-19T11:04:17.749Z,41.99
2023-02-19T11:05:17.678Z,40.11
2023-02-19T11:06:17.649Z,42.21
2023-02-19T11:07:17.618Z,40.54
2023-02-19T11:08:17.608Z,40.55
2023-02-19T11:09:17.587Z,39.16
2023-02-19T11:10:17.584Z,41.45
2023-02-19T11:11:17.554Z,40.32
2023-02-19T11:12:17.547Z,38.13
2023-02-19T11:13:17.531Z,39.47
2023-02-19T11:14:17.511Z,41.29
2023-02-19T11:15:17.562Z,40.46
2023-02-19T11:16:17.506Z,43.67
2023-02-19T11:17:17.457Z,42.90
2023-02-19T11:18:17.442Z,42.39
2023-02-19T11:19:17.416Z,40.87
2023-02-19T11:20:17.403Z,43.12
2023-02-19T11:21:17.369Z,41.22
2023-02-19T11:22:17.356Z,42.55
2023-02-19T11:23:17.337Z,41.86
2023-02-19T11:24:17.320Z,42.07
2023-02-19T11:25:17.294Z,42.79
2023-02-19T11:26:17.263Z,41.83
2023-02-19T11:27:17.261Z,40.05
2023-02-19T11:28:17.222Z,42.76
2023-02-19T11:29:17.208Z,41.90
2023-02-19T11:30:17.268Z,42.47
2023-02-19T11:31:17.298Z,42.17
2023-02-19T11:32:17.306Z,41.07
2023-02-19T11:33:17.224Z,42.33
2023-02-19T11:34:17.098Z,42.29
2023-02-19T11:35:17.087Z,41.49
2023-02-19T11:36:17.075Z,40.66
2023-02-19T11:37:17.057Z,41.33
2023-02-19T11:38:17.025Z,42.36
2023-02-19T11:39:17.004Z,42.76
2023-02-19T11:40:16.988Z,39.19
2023-02-19T11:41:16.981Z,39.94
2023-02-19T11:42:16.956Z,41.01
2023-02-19T11:43:16.929Z,40.87
2023-02-19T11:44:16.914Z,42.51
2023-02-19T11:45:16.882Z,41.26
2023-02-19T11:46:17.617Z,40.54
2023-02-19T11:47:16.846Z,40.49
2023-02-19T11:48:16.821Z,40.92
2023-02-19T11:49:16.799Z,39.66
2023-02-19T11:50:16.777Z,39.69
2023-02-19T11:51:16.765Z,37.43
2023-02-19T11:52:16.734Z,37.89
2023-02-19T11:53:16.714Z,37.58
2023-02-19T11:54:16.696Z,38.99
2023-02-19T11:55:16.693Z,36.50
2023-02-19T11:56:16.664Z,36.66
2023-02-19T11:57:16.642Z,36.51
2023-02-19T11:58:16.616Z,40.67
2023-02-19T11:59:16.577Z,35.88
2023-02-19T12:00:16.553Z,38.27
2023-02-19T12:01:16.531Z,37.95
2023-02-19T12:02:16.646Z,36.77
2023-02-19T12:03:16.483Z,35.59
2023-02-19T12:04:16.467Z,34.12
2023-02-19T12:05:16.505Z,31.22
2023-02-19T12:06:16.538Z,30.50
2023-02-19T12:07:16.983Z,34.42
2023-02-19T12:08:16.390Z,36.63
2023-02-19T12:09:16.377Z,37.16
2023-02-19T12:10:16.344Z,38.11
2023-02-19T12:11:16.321Z,36.28
2023-02-19T12:12:16.288Z,36.77
2023-02-19T12:13:16.277Z,38.14
2023-02-19T12:14:16.257Z,34.37
2023-02-19T12:15:16.226Z,32.51
2023-02-19T12:16:16.204Z,31.44
2023-02-19T12:17:16.186Z,32.44
2023-02-19T12:18:16.172Z,32.27
2023-02-19T12:19:16.169Z,33.56
2023-02-19T12:20:16.160Z,33.51
2023-02-19T12:21:16.146Z,32.83
2023-02-19T12:22:16.127Z,34.31
2023-02-19T12:23:16.122Z,31.91
2023-02-19T12:24:16.110Z,32.10
2023-02-19T12:25:16.109Z,33.51
2023-02-19T12:26:16.161Z,35.94
2023-02-19T12:27:16.073Z,32.49
2023-02-19T12:28:16.064Z,32.23
2023-02-19T12:29:16.045Z,31.75
2023-02-19T12:30:16.129Z,33.60
2023-02-19T12:31:16.085Z,34.64
2023-02-19T12:32:16.021Z,33.87
2023-02-19T12:33:16.014Z,35.40
2023-02-19T12:34:15.988Z,35.34
2023-02-19T12:35:15.971Z,34.33
2023-02-19T12:36:15.943Z,33.45
2023-02-19T12:37:15.925Z,34.41
2023-02-19T12:38:15.900Z,34.99
2023-02-19T12:39:15.869Z,31.65
2023-02-19T12:40:15.851Z,31.24
2023-02-19T12:41:15.839Z,29.16
2023-02-19T12:42:15.897Z,25.63
2023-02-19T12:43:15.804Z,27.56
2023-02-19T12:44:15.974Z,29.51
2023-02-19T12:45:15.774Z,31.98
2023-02-19T12:46:15.779Z,31.72
2023-02-19T12:47:15.754Z,30.88
2023-02-19T12:48:15.738Z,32.39
2023-02-19T12:49:15.722Z,30.01
2023-02-19T12:50:15.700Z,30.85
2023-02-19T12:51:15.655Z,32.94
2023-02-19T12:52:15.650Z,32.12
2023-02-19T12:53:15.641Z,32.53
2023-02-19T12:54:15.621Z,31.06
2023-02-19T12:55:15.602Z,33.51
2023-02-19T12:56:15.582Z,32.75
2023-02-19T12:57:15.563Z,36.45
2023-02-19T12:58:15.574Z,36.90
2023-02-19T12:59:15.537Z,35.42
2023-02-19T13:00:15.527Z,33.82
2023-02-19T13:01:15.558Z,32.62
2023-02-19T13:02:15.491Z,35.37
2023-02-19T13:03:15.452Z,34.82
2023-02-19T13:04:15.430Z,33.45
2023-02-19T13:05:15.406Z,34.00
2023-02-19T13:06:15.711Z,31.78
2023-02-19T13:07:15.370Z,30.01
2023-02-19T13:08:15.351Z,30.63
2023-02-19T13:09:15.338Z,32.03
2023-02-19T13:10:15.330Z,32.72
2023-02-19T13:11:15.387Z,33.51
2023-02-19T13:12:15.304Z,34.71
2023-02-19T13:13:15.273Z,29.54
2023-02-19T13:14:15.247Z,28.97
2023-02-19T13:15:15.220Z,32.08
2023-02-19T13:16:18.429Z,31.70
2023-02-19T13:17:15.182Z,31.87
2023-02-19T13:18:15.166Z,31.75
2023-02-19T13:19:15.235Z,30.62
2023-02-19T13:20:15.141Z,27.92
2023-02-19T13:21:15.122Z,30.55
2023-02-19T13:22:15.105Z,29.86
2023-02-19T13:23:15.085Z,26.30
2023-02-19T13:24:15.069Z,25.24
2023-02-19T13:25:15.051Z,26.85
2023-02-19T13:26:15.304Z,27.24
2023-02-19T13:27:15.018Z,28.12
2023-02-19T13:28:14.990Z,28.48
2023-02-19T13:29:14.980Z,26.29
2023-02-19T13:30:14.970Z,25.82
2023-02-19T13:31:15.565Z,27.07
2023-02-19T13:32:15.002Z,27.20
2023-02-19T13:33:14.922Z,26.64
2023-02-19T13:34:14.912Z,27.96
2023-02-19T13:35:14.887Z,28.39
2023-02-19T13:36:14.873Z,26.44
2023-02-19T13:37:14.855Z,30.69
2023-02-19T13:38:14.849Z,29.52
2023-02-19T13:40:13.785Z,29.70
2023-02-19T13:41:14.766Z,33.33
2023-02-19T13:42:14.737Z,35.94
2023-02-19T13:43:14.724Z,30.09
2023-02-19T13:44:14.712Z,29.95